createdAt,value
2022-10-13T00:01:14.539Z,11.90
2022-10-13T00:03:42.896Z,11.90
2022-10-13T00:06:17.519Z,11.90
2022-10-13T00:08:45.178Z,11.90
2022-10-13T00:11:38.648Z,11.80
2022-10-13T00:14:05.692Z,11.90
2022-10-13T00:16:33.402Z,11.90
2022-10-13T00:19:00.449Z,11.80
2022-10-13T00:21:35.356Z,11.90
2022-10-13T00:24:02.129Z,11.80
2022-10-13T00:26:29.214Z,11.80
2022-10-13T00:28:57.078Z,11.80
2022-10-13T00:31:29.638Z,11.80
2022-10-13T00:33:59.103Z,11.90
2022-10-13T00:36:30.856Z,11.90
2022-10-13T00:38:58.440Z,11.90
2022-10-13T00:41:25.425Z,11.90
2022-10-13T00:44:00.459Z,12.00
2022-10-13T00:46:37.139Z,11.90
2022-10-13T00:49:17.038Z,12.00
2022-10-13T00:51:48.657Z,11.90
2022-10-13T00:54:22.005Z,12.00
2022-10-13T00:56:51.395Z,12.00
2022-10-13T00:59:29.500Z,12.00
2022-10-13T01:01:59.723Z,12.00
2022-10-13T01:04:34.323Z,12.00
2022-10-13T01:07:03.276Z,12.00
2022-10-13T01:09:42.024Z,12.00
2022-10-13T01:12:52.850Z,12.10
2022-10-13T01:15:45.668Z,12.10
2022-10-13T01:18:39.680Z,12.10
2022-10-13T01:21:41.531Z,12.00
2022-10-13T01:24:45.084Z,12.10
2022-10-13T01:27:44.721Z,12.00
2022-10-13T01:30:22.945Z,12.00
2022-10-13T01:33:16.021Z,12.10
2022-10-13T01:36:04.377Z,12.10
2022-10-13T01:38:36.849Z,12.10
2022-10-13T01:41:21.564Z,12.10
2022-10-13T01:44:05.144Z,12.10
2022-10-13T01:46:37.910Z,12.10
2022-10-13T01:49:11.909Z,12.10
2022-10-13T01:51:44.061Z,12.10
2022-10-13T01:54:11.120Z,12.10
2022-10-13T01:56:37.830Z,12.10
2022-10-13T01:59:14.357Z,12.10
2022-10-13T02:02:12.302Z,12.00
2022-10-13T02:05:08.925Z,12.20
2022-10-13T02:07:45.825Z,12.20
2022-10-13T02:10:27.307Z,12.10
2022-10-13T02:13:03.572Z,12.10
2022-10-13T02:15:40.812Z,12.10
2022-10-13T02:18:10.249Z,12.20
2022-10-13T02:20:37.280Z,12.20
2022-10-13T02:23:13.048Z,12.20
2022-10-13T02:25:41.230Z,12.20
2022-10-13T02:28:08.854Z,12.20
2022-10-13T02:30:35.857Z,12.20
2022-10-13T02:33:03.339Z,12.20
2022-10-13T02:35:30.947Z,12.20
2022-10-13T02:37:57.637Z,12.30
2022-10-13T02:40:27.101Z,12.30
2022-10-13T02:42:54.058Z,12.30
2022-10-13T02:45:20.818Z,12.40
2022-10-13T02:47:47.533Z,12.40
2022-10-13T02:50:14.377Z,12.40
2022-10-13T02:52:41.086Z,12.40
2022-10-13T02:55:09.556Z,12.40
2022-10-13T02:57:38.804Z,12.30
2022-10-13T03:00:07.415Z,12.30
2022-10-13T03:02:35.498Z,12.40
2022-10-13T03:05:02.206Z,12.30
2022-10-13T03:07:28.963Z,12.40
2022-10-13T03:09:55.940Z,12.30
2022-10-13T03:12:23.202Z,12.40
2022-10-13T03:14:50.014Z,12.40
2022-10-13T03:17:17.945Z,12.40
2022-10-13T03:19:45.193Z,12.50
2022-10-13T03:22:14.580Z,12.40
2022-10-13T03:24:42.401Z,12.40
2022-10-13T03:27:09.187Z,12.40
2022-10-13T03:29:35.912Z,12.50
2022-10-13T03:32:02.789Z,12.40
2022-10-13T03:34:29.589Z,12.40
2022-10-13T03:36:56.336Z,12.40
2022-10-13T03:39:23.024Z,12.50
2022-10-13T03:41:49.841Z,12.50
2022-10-13T03:44:16.574Z,12.50
2022-10-13T03:46:43.301Z,12.50
2022-10-13T03:49:12.183Z,12.50
2022-10-13T03:51:39.372Z,12.40
2022-10-13T03:54:06.160Z,12.50
2022-10-13T03:56:33.126Z,12.50
2022-10-13T03:59:00.775Z,12.50
2022-10-13T04:01:35.164Z,12.50
2022-10-13T04:04:04.523Z,12.50
2022-10-13T04:06:31.771Z,12.50
2022-10-13T04:08:58.974Z,12.40
2022-10-13T04:11:25.901Z,12.40
2022-10-13T04:13:53.186Z,12.40
2022-10-13T04:16:26.151Z,12.40
2022-10-13T04:19:01.226Z,12.50
2022-10-13T04:21:51.420Z,12.50
2022-10-13T04:24:18.250Z,12.50
2022-10-13T04:26:46.568Z,12.50
2022-10-13T04:29:13.678Z,12.50
2022-10-13T04:31:43.745Z,12.50
2022-10-13T04:34:11.455Z,12.50
2022-10-13T04:36:38.529Z,12.50
2022-10-13T04:39:05.540Z,12.50
2022-10-13T04:41:32.242Z,12.40
2022-10-13T04:44:02.155Z,12.40
2022-10-13T04:46:29.479Z,12.40
2022-10-13T04:48:56.272Z,12.40
2022-10-13T04:51:26.345Z,12.40
2022-10-13T04:53:59.583Z,12.40
2022-10-13T04:56:27.139Z,12.40
2022-10-13T04:59:00.133Z,12.50
2022-10-13T05:01:28.121Z,12.40
2022-10-13T05:04:03.312Z,12.40
2022-10-13T05:06:34.369Z,12.40
2022-10-13T05:09:02.116Z,12.40
2022-10-13T05:11:32.738Z,12.50
2022-10-13T05:14:02.275Z,12.40
2022-10-13T05:16:31.649Z,12.50
2022-10-13T05:18:58.446Z,12.60
2022-10-13T05:21:29.833Z,12.50
2022-10-13T05:23:58.008Z,12.50
2022-10-13T05:26:29.053Z,12.60
2022-10-13T05:29:00.897Z,12.50
2022-10-13T05:31:30.231Z,12.60
2022-10-13T05:33:57.713Z,12.60
2022-10-13T05:36:30.995Z,12.60
2022-10-13T05:39:01.100Z,12.60
2022-10-13T05:41:30.861Z,12.60
2022-10-13T05:44:09.403Z,12.60
2022-10-13T05:46:36.502Z,12.60
2022-10-13T05:49:04.347Z,12.60
2022-10-13T05:51:43.784Z,12.60
2022-10-13T05:54:30.041Z,12.60
2022-10-13T05:57:14.128Z,12.60
2022-10-13T05:59:55.039Z,12.70
2022-10-13T06:02:26.882Z,12.60
2022-10-13T06:04:57.276Z,12.70
2022-10-13T06:07:24.768Z,12.60
2022-10-13T06:09:51.837Z,12.60
2022-10-13T06:12:19.002Z,12.70
2022-10-13T06:14:45.908Z,12.70
2022-10-13T06:17:12.841Z,12.80
2022-10-13T06:19:39.556Z,12.80
2022-10-13T06:22:06.535Z,12.80
2022-10-13T06:24:33.226Z,12.80
2022-10-13T06:26:59.984Z,12.80
2022-10-13T06:29:26.654Z,12.80
2022-10-13T06:31:53.359Z,12.80
2022-10-13T06:34:20.072Z,12.80
2022-10-13T06:36:47.235Z,12.80
2022-10-13T06:39:14.397Z,12.80
2022-10-13T06:41:41.112Z,12.80
2022-10-13T06:44:07.901Z,12.80
2022-10-13T06:46:34.612Z,12.80
2022-10-13T06:49:01.444Z,12.70
2022-10-13T06:51:30.957Z,12.70
2022-10-13T06:53:57.692Z,12.70
2022-10-13T06:56:24.600Z,12.70
2022-10-13T06:58:51.311Z,12.80
2022-10-13T07:01:18.056Z,12.80
2022-10-13T07:03:44.737Z,12.80
2022-10-13T07:06:11.645Z,12.70
2022-10-13T07:08:38.432Z,12.70
2022-10-13T07:11:16.264Z,12.80
2022-10-13T07:13:46.426Z,12.80
2022-10-13T07:16:16.742Z,12.80
2022-10-13T07:18:44.060Z,12.80
2022-10-13T07:21:10.764Z,12.90
2022-10-13T07:23:37.642Z,12.90
2022-10-13T07:26:09.979Z,12.90
2022-10-13T07:28:37.953Z,12.90
2022-10-13T07:31:15.112Z,12.90
2022-10-13T07:33:45.134Z,12.90
2022-10-13T07:36:13.096Z,12.90
2022-10-13T07:38:39.940Z,13.00
2022-10-13T07:41:11.536Z,13.00
2022-10-13T07:43:39.466Z,13.00
2022-10-13T07:46:07.559Z,13.00
2022-10-13T07:48:38.374Z,13.10
2022-10-13T07:51:09.847Z,13.10
2022-10-13T07:53:37.110Z,13.10
2022-10-13T07:56:08.424Z,13.20
2022-10-13T07:58:39.205Z,13.20
2022-10-13T08:01:08.600Z,13.20
2022-10-13T08:06:05.793Z,13.30
2022-10-13T08:08:32.976Z,13.40
2022-10-13T08:11:08.095Z,13.40
2022-10-13T08:13:35.640Z,13.40
2022-10-13T08:16:03.644Z,13.50
2022-10-13T08:18:30.983Z,13.50
2022-10-13T08:23:50.295Z,13.50
2022-10-13T08:26:23.055Z,13.60
2022-10-13T08:29:09.478Z,13.60
2022-10-13T08:31:37.601Z,13.60
2022-10-13T08:34:04.644Z,13.70
2022-10-13T08:36:31.813Z,13.80
2022-10-13T08:38:58.570Z,13.80
2022-10-13T08:41:32.293Z,13.80
2022-10-13T08:47:30.097Z,13.80
2022-10-13T08:50:04.845Z,13.90
2022-10-13T08:52:54.834Z,13.90
2022-10-13T08:56:04.061Z,13.90
2022-10-13T08:58:34.984Z,14.00
2022-10-13T09:01:08.786Z,14.00
2022-10-13T09:04:11.090Z,14.00
2022-10-13T09:06:48.237Z,14.10
2022-10-13T09:09:18.280Z,14.10
2022-10-13T09:11:49.407Z,14.00
2022-10-13T09:14:37.618Z,14.10
2022-10-13T09:17:26.326Z,14.00
2022-10-13T09:20:20.133Z,14.00
2022-10-13T09:23:07.862Z,14.00
2022-10-13T09:25:48.444Z,14.00
2022-10-13T09:28:31.343Z,14.10
2022-10-13T09:31:26.273Z,14.10
2022-10-13T09:34:23.631Z,14.10
2022-10-13T09:37:24.791Z,14.10
2022-10-13T09:40:20.556Z,14.00
2022-10-13T09:42:54.184Z,14.10
2022-10-13T09:45:24.609Z,14.20
2022-10-13T09:48:06.281Z,14.30
2022-10-13T09:50:36.075Z,14.40
2022-10-13T09:53:21.230Z,14.40
2022-10-13T09:55:49.488Z,14.50
2022-10-13T09:58:27.896Z,14.50
2022-10-13T10:00:55.644Z,14.60
2022-10-13T10:03:43.288Z,14.60
2022-10-13T10:06:15.868Z,14.70
2022-10-13T10:09:37.756Z,14.70
2022-10-13T10:12:10.893Z,14.70
2022-10-13T10:14:39.125Z,14.80
2022-10-13T10:17:21.204Z,14.80
2022-10-13T10:19:59.548Z,14.80
2022-10-13T10:23:12.529Z,14.90
2022-10-13T10:26:04.153Z,14.80
2022-10-13T10:28:48.438Z,14.90
2022-10-13T10:31:39.549Z,14.90
2022-10-13T10:34:36.773Z,15.10
2022-10-13T10:37:22.925Z,15.10
2022-10-13T10:40:19.081Z,15.30
2022-10-13T10:43:03.685Z,15.40
2022-10-13T10:45:38.743Z,15.50
2022-10-13T10:48:35.916Z,15.60
2022-10-13T10:51:07.213Z,15.60
2022-10-13T10:53:45.116Z,15.60
2022-10-13T10:56:34.838Z,15.50
2022-10-13T10:59:51.117Z,15.60
2022-10-13T11:02:26.911Z,15.60
2022-10-13T11:04:54.311Z,15.60
2022-10-13T11:07:24.085Z,15.60
2022-10-13T11:09:57.568Z,15.60
2022-10-13T11:12:44.889Z,15.70
2022-10-13T11:15:26.057Z,15.70
2022-10-13T11:17:52.994Z,15.70
2022-10-13T11:20:22.356Z,15.70
2022-10-13T11:23:01.364Z,15.70
2022-10-13T11:25:40.882Z,15.70
2022-10-13T11:28:23.059Z,15.60
2022-10-13T11:31:10.823Z,15.60
2022-10-13T11:33:41.804Z,15.50
2022-10-13T11:36:57.767Z,15.40
2022-10-13T11:39:52.350Z,15.50
2022-10-13T11:42:32.305Z,15.40
2022-10-13T11:45:27.835Z,15.40
2022-10-13T11:48:40.361Z,15.40
2022-10-13T11:51:38.397Z,15.60
2022-10-13T11:54:21.517Z,15.60
2022-10-13T11:56:54.480Z,15.60
2022-10-13T11:59:47.581Z,15.60
2022-10-13T12:02:19.198Z,15.60
2022-10-13T12:05:06.181Z,15.70
2022-10-13T12:07:41.090Z,15.80
2022-10-13T12:10:20.417Z,15.80
2022-10-13T12:12:51.496Z,15.70
2022-10-13T12:15:28.448Z,15.70
2022-10-13T12:17:55.147Z,15.70
2022-10-13T12:20:32.459Z,15.60
2022-10-13T12:22:59.582Z,15.60
2022-10-13T12:25:29.972Z,15.50
2022-10-13T12:28:00.627Z,15.60
2022-10-13T12:30:36.210Z,15.60
2022-10-13T12:33:24.867Z,15.60
2022-10-13T12:35:51.673Z,15.60
2022-10-13T12:38:22.162Z,15.60
2022-10-13T12:40:53.229Z,15.60
2022-10-13T12:43:25.337Z,15.50
2022-10-13T12:45:52.493Z,15.60
2022-10-13T12:48:40.409Z,15.50
2022-10-13T12:51:27.958Z,15.40
2022-10-13T12:54:09.356Z,15.40
2022-10-13T12:56:36.491Z,15.30
2022-10-13T12:59:19.764Z,15.30
2022-10-13T13:02:31.993Z,15.30
2022-10-13T13:04:59.553Z,15.40
2022-10-13T13:07:39.737Z,15.40
2022-10-13T13:10:18.551Z,15.20
2022-10-13T13:12:50.038Z,15.30
2022-10-13T13:15:25.910Z,15.30
2022-10-13T13:17:58.682Z,15.30
2022-10-13T13:20:33.843Z,15.30
2022-10-13T13:23:01.136Z,15.40
2022-10-13T13:25:28.071Z,15.40
2022-10-13T13:27:55.072Z,15.40
2022-10-13T13:30:24.083Z,15.30
2022-10-13T13:32:51.709Z,15.30
2022-10-13T13:35:18.993Z,15.30
2022-10-13T13:37:52.303Z,15.40
2022-10-13T13:40:23.682Z,15.40
2022-10-13T13:42:52.383Z,15.50
2022-10-13T13:45:26.159Z,15.50
2022-10-13T13:47:54.947Z,15.50
2022-10-13T13:50:35.777Z,15.40
2022-10-13T13:53:03.597Z,15.40
2022-10-13T13:55:30.851Z,15.30
2022-10-13T13:57:57.963Z,15.40
2022-10-13T14:00:24.804Z,15.40
2022-10-13T14:02:51.476Z,15.40
2022-10-13T14:05:18.256Z,15.50
2022-10-13T14:07:44.934Z,15.40
2022-10-13T14:10:11.957Z,15.50
2022-10-13T14:12:38.716Z,15.50
2022-10-13T14:15:06.364Z,15.40
2022-10-13T14:17:33.180Z,15.40
2022-10-13T14:19:59.849Z,15.30
2022-10-13T14:22:26.865Z,15.40
2022-10-13T14:24:54.077Z,15.40
2022-10-13T14:27:20.998Z,15.40
2022-10-13T14:29:47.771Z,15.40
2022-10-13T14:32:14.450Z,15.40
2022-10-13T14:34:41.171Z,15.30
2022-10-13T14:37:08.081Z,15.30
2022-10-13T14:39:34.843Z,15.40
2022-10-13T14:42:01.664Z,15.40
2022-10-13T14:44:28.419Z,15.40
2022-10-13T14:46:55.122Z,15.40
2022-10-13T14:49:21.953Z,15.30
2022-10-13T14:51:48.771Z,15.40
2022-10-13T14:54:15.535Z,15.30
2022-10-13T14:56:44.778Z,15.30
2022-10-13T14:59:12.298Z,15.30
2022-10-13T15:01:44.365Z,15.30
2022-10-13T15:04:11.498Z,15.20
2022-10-13T15:06:41.469Z,15.20
2022-10-13T15:09:10.135Z,15.10
2022-10-13T15:11:37.043Z,15.20
2022-10-13T15:14:04.520Z,15.20
2022-10-13T15:16:35.607Z,15.20
2022-10-13T15:19:03.899Z,15.30
2022-10-13T15:21:30.941Z,15.20
2022-10-13T15:23:57.975Z,15.30
2022-10-13T15:26:24.682Z,15.20
2022-10-13T15:28:53.314Z,15.30
2022-10-13T15:31:22.448Z,15.20
2022-10-13T15:33:52.929Z,15.30
2022-10-13T15:36:22.068Z,15.20
2022-10-13T15:38:49.116Z,15.20
2022-10-13T15:41:25.473Z,15.30
2022-10-13T15:43:52.474Z,15.30
2022-10-13T15:46:24.005Z,15.30
2022-10-13T15:48:59.894Z,15.20
2022-10-13T15:51:33.446Z,15.30
2022-10-13T15:54:12.098Z,15.20
2022-10-13T15:56:38.822Z,15.20
2022-10-13T15:59:05.640Z,15.20
2022-10-13T16:01:32.984Z,15.20
2022-10-13T16:03:59.833Z,15.10
2022-10-13T16:06:26.689Z,15.10
2022-10-13T16:08:53.891Z,15.10
2022-10-13T16:11:22.936Z,15.10
2022-10-13T16:13:52.544Z,15.10
2022-10-13T16:16:19.918Z,15.10
2022-10-13T16:18:46.737Z,15.10
2022-10-13T16:21:22.776Z,15.20
2022-10-13T16:23:52.149Z,15.10
2022-10-13T16:26:19.282Z,15.10
2022-10-13T16:28:47.016Z,14.90
2022-10-13T16:31:16.827Z,14.90
2022-10-13T16:33:45.095Z,14.70
2022-10-13T16:36:16.028Z,14.70
2022-10-13T16:38:45.902Z,14.70
2022-10-13T16:41:18.036Z,14.60
2022-10-13T16:43:46.480Z,14.50
2022-10-13T16:46:16.171Z,14.60
2022-10-13T16:48:45.679Z,14.60
2022-10-13T16:51:25.403Z,14.60
2022-10-13T16:54:02.783Z,14.50
2022-10-13T16:56:31.278Z,14.50
2022-10-13T16:59:04.682Z,14.50
2022-10-13T17:01:33.586Z,14.40
2022-10-13T17:04:00.740Z,14.50
2022-10-13T17:06:29.930Z,14.50
2022-10-13T17:09:03.148Z,14.50
2022-10-13T17:11:34.129Z,14.40
2022-10-13T17:14:01.790Z,14.40
2022-10-13T17:16:28.696Z,14.30
2022-10-13T17:18:55.758Z,14.20
2022-10-13T17:21:22.959Z,14.10
2022-10-13T17:23:50.053Z,14.10
2022-10-13T17:26:18.459Z,14.00
2022-10-13T17:28:45.867Z,13.90
2022-10-13T17:31:23.024Z,13.90
2022-10-13T17:33:50.844Z,14.00
2022-10-13T17:36:25.699Z,14.00
2022-10-13T17:38:55.684Z,14.00
2022-10-13T17:41:23.930Z,14.00
2022-10-13T17:43:52.603Z,14.00
2022-10-13T17:46:42.590Z,14.10
2022-10-13T17:49:11.999Z,14.10
2022-10-13T17:51:43.210Z,13.90
2022-10-13T17:54:16.937Z,13.90
2022-10-13T17:56:45.140Z,13.80
2022-10-13T17:59:12.829Z,13.60
2022-10-13T18:01:41.870Z,13.50
2022-10-13T18:04:14.292Z,13.40
2022-10-13T18:06:47.072Z,13.40
2022-10-13T18:09:20.675Z,13.40
2022-10-13T18:11:54.921Z,13.30
2022-10-13T18:14:24.501Z,13.30
2022-10-13T18:16:53.168Z,13.10
2022-10-13T18:19:21.461Z,13.20
2022-10-13T18:21:49.406Z,13.20
2022-10-13T18:24:17.700Z,13.30
2022-10-13T18:26:45.495Z,13.30
2022-10-13T18:29:13.118Z,13.30
2022-10-13T18:31:42.106Z,13.20
2022-10-13T18:34:14.549Z,13.20
2022-10-13T18:36:52.009Z,13.20
2022-10-13T18:39:22.938Z,13.20
2022-10-13T18:41:51.375Z,13.20
2022-10-13T18:44:20.342Z,13.10
2022-10-13T18:46:51.626Z,13.10
2022-10-13T18:49:21.557Z,13.20
2022-10-13T18:51:51.763Z,13.10
2022-10-13T18:54:18.671Z,13.10
2022-10-13T18:56:45.372Z,13.20
2022-10-13T18:59:12.374Z,13.10
2022-10-13T19:01:40.702Z,13.20
2022-10-13T19:04:08.566Z,13.10
2022-10-13T19:06:35.421Z,13.10
2022-10-13T19:09:07.032Z,13.00
2022-10-13T19:11:35.250Z,13.10
2022-10-13T19:14:03.492Z,13.10
2022-10-13T19:16:32.206Z,13.20
2022-10-13T19:18:59.056Z,13.20
2022-10-13T19:21:26.426Z,13.20
2022-10-13T19:23:56.183Z,13.30
2022-10-13T19:26:30.941Z,13.20
2022-10-13T19:29:07.969Z,13.30
2022-10-13T19:31:37.910Z,13.30
2022-10-13T19:34:04.973Z,13.30
2022-10-13T19:36:35.675Z,13.40
2022-10-13T19:39:06.962Z,13.40
2022-10-13T19:41:34.495Z,13.30
2022-10-13T19:44:01.705Z,13.40
2022-10-13T19:46:28.388Z,13.30
2022-10-13T19:48:55.099Z,13.30
2022-10-13T19:51:21.873Z,13.30
2022-10-13T19:53:49.840Z,13.20
2022-10-13T19:56:31.268Z,13.20
2022-10-13T19:58:58.753Z,13.20
2022-10-13T20:01:25.990Z,13.20
2022-10-13T20:03:53.673Z,13.20
2022-10-13T20:06:21.677Z,13.10
2022-10-13T20:08:49.894Z,13.10
2022-10-13T20:11:23.649Z,13.10
2022-10-13T20:13:52.947Z,13.10
2022-10-13T20:16:23.573Z,13.00
2022-10-13T20:18:57.625Z,13.00
2022-10-13T20:21:27.233Z,12.90
2022-10-13T20:23:54.508Z,12.90
2022-10-13T20:26:22.216Z,12.80
2022-10-13T20:28:51.771Z,12.80
2022-10-13T20:31:21.434Z,12.80
2022-10-13T20:33:52.557Z,12.80
2022-10-13T20:36:19.631Z,12.80
2022-10-13T20:38:49.097Z,12.70
2022-10-13T20:41:24.717Z,12.80
2022-10-13T20:43:53.384Z,12.70
2022-10-13T20:46:21.737Z,12.60
2022-10-13T20:49:11.065Z,12.60
2022-10-13T20:51:36.831Z,12.60
2022-10-13T20:54:07.044Z,12.60
2022-10-13T20:56:34.031Z,12.60
2022-10-13T20:59:11.747Z,12.50
2022-10-13T21:01:39.090Z,12.50
2022-10-13T21:04:06.417Z,12.40
2022-10-13T21:06:33.492Z,12.40
2022-10-13T21:09:00.238Z,12.50
2022-10-13T21:11:27.008Z,12.40
2022-10-13T21:13:53.789Z,12.40
2022-10-13T21:16:27.981Z,12.30
2022-10-13T21:18:57.289Z,12.20
2022-10-13T21:21:27.981Z,12.20
2022-10-13T21:23:59.393Z,12.20
2022-10-13T21:26:31.779Z,12.20
2022-10-13T21:29:00.054Z,12.20
2022-10-13T21:31:27.986Z,12.20
2022-10-13T21:33:55.450Z,12.10
2022-10-13T21:36:31.894Z,12.00
2022-10-13T21:39:05.825Z,11.90
2022-10-13T21:41:32.733Z,11.90
2022-10-13T21:43:59.552Z,11.90
2022-10-13T21:46:29.987Z,11.90
2022-10-13T21:49:06.239Z,12.00
2022-10-13T21:51:38.751Z,12.00
2022-10-13T21:54:10.597Z,11.90
2022-10-13T21:56:39.714Z,11.90
2022-10-13T21:59:08.006Z,11.80
2022-10-13T22:01:35.307Z,11.80
2022-10-13T22:04:03.910Z,11.80
2022-10-13T22:06:33.569Z,11.80
2022-10-13T22:09:03.682Z,11.70
2022-10-13T22:11:34.470Z,11.70
2022-10-13T22:14:03.625Z,11.70
2022-10-13T22:16:52.516Z,11.60
2022-10-13T22:19:26.531Z,11.70
2022-10-13T22:21:53.322Z,11.70
2022-10-13T22:24:22.379Z,11.60
2022-10-13T22:26:50.569Z,11.70
2022-10-13T22:29:21.067Z,11.60
2022-10-13T22:31:48.630Z,11.60
2022-10-13T22:34:16.197Z,11.70
2022-10-13T22:36:46.052Z,11.70
2022-10-13T22:39:17.102Z,11.70
2022-10-13T22:41:43.937Z,11.70
2022-10-13T22:44:10.875Z,11.80
2022-10-13T22:46:40.249Z,11.80
2022-10-13T22:49:07.983Z,11.70
2022-10-13T22:51:36.334Z,11.80
2022-10-13T22:54:04.190Z,11.70
2022-10-13T22:56:33.130Z,11.70
2022-10-13T22:59:08.448Z,11.80
2022-10-13T23:01:36.157Z,11.70
2022-10-13T23:04:03.490Z,11.70
2022-10-13T23:06:33.664Z,11.70
2022-10-13T23:09:03.669Z,11.70
2022-10-13T23:11:30.409Z,11.70
2022-10-13T23:13:57.114Z,11.80
2022-10-13T23:16:26.791Z,11.60
2022-10-13T23:18:54.308Z,11.60
2022-10-13T23:21:23.267Z,11.60
2022-10-13T23:23:58.643Z,11.60
2022-10-13T23:26:26.288Z,11.50
2022-10-13T23:28:54.850Z,11.60
2022-10-13T23:31:21.707Z,11.50
2022-10-13T23:33:48.696Z,11.40
2022-10-13T23:36:22.782Z,11.50
2022-10-13T23:38:55.223Z,11.50
2022-10-13T23:41:22.055Z,11.50
2022-10-13T23:43:48.744Z,11.50
2022-10-13T23:46:15.449Z,11.60
2022-10-13T23:48:42.684Z,11.60
2022-10-13T23:51:17.306Z,11.60
2022-10-13T23:53:44.673Z,11.60
2022-10-13T23:56:13.087Z,11.60
2022-10-13T23:58:42.835Z,11.50
